sensor_id;sensor_type;location;lat;lon;timestamp;P1;durP1;ratioP1;P2;durP2;ratioP2
56269;SDS011;42176;43.240;27.880;2023-07-13T00:01:44;20.08;;;15.65;;
56269;SDS011;42176;43.240;27.880;2023-07-13T00:03:47;24.52;;;16.38;;
56269;SDS011;42176;43.240;27.880;2023-07-13T00:05:56;23.73;;;15.87;;
56269;SDS011;42176;43.240;27.880;2023-07-13T00:07:57;23.45;;;15.70;;
56269;SDS011;42176;43.240;27.880;2023-07-13T00:09:58;24.57;;;16.37;;
56269;SDS011;42176;43.240;27.880;2023-07-13T00:11:59;20.55;;;15.52;;
56269;SDS011;42176;43.240;27.880;2023-07-13T00:13:59;27.52;;;17.40;;
56269;SDS011;42176;43.240;27.880;2023-07-13T00:16:00;20.37;;;15.37;;
56269;SDS011;42176;43.240;27.880;2023-07-13T00:18:01;28.73;;;16.10;;
56269;SDS011;42176;43.240;27.880;2023-07-13T00:20:01;22.08;;;15.60;;
56269;SDS011;42176;43.240;27.880;2023-07-13T00:22:02;22.33;;;14.38;;
56269;SDS011;42176;43.240;27.880;2023-07-13T00:24:03;24.75;;;15.27;;
56269;SDS011;42176;43.240;27.880;2023-07-13T00:26:04;20.33;;;16.88;;
56269;SDS011;42176;43.240;27.880;2023-07-13T00:28:06;28.23;;;15.30;;
56269;SDS011;42176;43.240;27.880;2023-07-13T00:30:07;25.97;;;16.67;;
56269;SDS011;42176;43.240;27.880;2023-07-13T00:32:09;25.13;;;16.25;;
56269;SDS011;42176;43.240;27.880;2023-07-13T00:34:09;19.35;;;14.20;;
56269;SDS011;42176;43.240;27.880;2023-07-13T00:36:10;25.03;;;15.20;;
56269;SDS011;42176;43.240;27.880;2023-07-13T00:38:11;22.50;;;15.10;;
56269;SDS011;42176;43.240;27.880;2023-07-13T00:40:12;22.42;;;15.25;;
56269;SDS011;42176;43.240;27.880;2023-07-13T00:42:14;24.48;;;15.23;;
56269;SDS011;42176;43.240;27.880;2023-07-13T00:44:16;20.95;;;14.65;;
56269;SDS011;42176;43.240;27.880;2023-07-13T00:46:19;19.00;;;15.40;;
56269;SDS011;42176;43.240;27.880;2023-07-13T00:48:24;22.23;;;15.60;;
56269;SDS011;42176;43.240;27.880;2023-07-13T00:50:27;22.77;;;15.15;;
56269;SDS011;42176;43.240;27.880;2023-07-13T00:52:28;23.93;;;14.40;;
56269;SDS011;42176;43.240;27.880;2023-07-13T00:54:33;20.23;;;15.07;;
56269;SDS011;42176;43.240;27.880;2023-07-13T00:56:37;17.48;;;12.15;;
56269;SDS011;42176;43.240;27.880;2023-07-13T00:58:37;18.02;;;11.38;;
56269;SDS011;42176;43.240;27.880;2023-07-13T01:00:38;21.48;;;13.18;;
56269;SDS011;42176;43.240;27.880;2023-07-13T01:02:42;21.83;;;13.43;;
56269;SDS011;42176;43.240;27.880;2023-07-13T01:04:44;20.15;;;13.23;;
56269;SDS011;42176;43.240;27.880;2023-07-13T01:06:44;20.50;;;14.50;;
56269;SDS011;42176;43.240;27.880;2023-07-13T01:08:47;20.48;;;15.43;;
56269;SDS011;42176;43.240;27.880;2023-07-13T01:10:51;21.27;;;14.57;;
56269;SDS011;42176;43.240;27.880;2023-07-13T01:12:53;17.05;;;13.20;;
56269;SDS011;42176;43.240;27.880;2023-07-13T01:15:00;19.90;;;14.23;;
56269;SDS011;42176;43.240;27.880;2023-07-13T01:17:02;18.05;;;12.77;;
56269;SDS011;42176;43.240;27.880;2023-07-13T01:21:08;15.48;;;11.13;;
56269;SDS011;42176;43.240;27.880;2023-07-13T01:23:10;13.53;;;10.03;;
56269;SDS011;42176;43.240;27.880;2023-07-13T01:25:13;12.35;;;10.10;;
56269;SDS011;42176;43.240;27.880;2023-07-13T01:27:15;15.60;;;11.82;;
56269;SDS011;42176;43.240;27.880;2023-07-13T01:29:17;15.32;;;11.23;;
56269;SDS011;42176;43.240;27.880;2023-07-13T01:31:18;11.75;;;10.55;;
56269;SDS011;42176;43.240;27.880;2023-07-13T01:33:18;11.23;;;9.60;;
56269;SDS011;42176;43.240;27.880;2023-07-13T01:35:19;16.83;;;9.63;;
56269;SDS011;42176;43.240;27.880;2023-07-13T01:37:19;12.10;;;9.20;;
56269;SDS011;42176;43.240;27.880;2023-07-13T01:39:21;12.30;;;10.00;;
56269;SDS011;42176;43.240;27.880;2023-07-13T01:41:23;13.20;;;9.48;;
56269;SDS011;42176;43.240;27.880;2023-07-13T01:43:24;12.20;;;9.40;;
56269;SDS011;42176;43.240;27.880;2023-07-13T01:45:24;9.37;;;8.30;;
56269;SDS011;42176;43.240;27.880;2023-07-13T01:47:24;10.07;;;8.97;;
56269;SDS011;42176;43.240;27.880;2023-07-13T01:51:26;13.50;;;9.80;;
56269;SDS011;42176;43.240;27.880;2023-07-13T01:53:27;13.67;;;9.50;;
56269;SDS011;42176;43.240;27.880;2023-07-13T01:55:27;15.93;;;11.13;;
56269;SDS011;42176;43.240;27.880;2023-07-13T01:59:29;12.77;;;9.87;;
56269;SDS011;42176;43.240;27.880;2023-07-13T02:01:29;10.90;;;8.50;;
56269;SDS011;42176;43.240;27.880;2023-07-13T02:03:29;14.40;;;9.10;;
56269;SDS011;42176;43.240;27.880;2023-07-13T02:05:30;12.38;;;9.27;;
56269;SDS011;42176;43.240;27.880;2023-07-13T02:07:31;11.43;;;8.23;;
56269;SDS011;42176;43.240;27.880;2023-07-13T02:09:31;12.13;;;8.77;;
56269;SDS011;42176;43.240;27.880;2023-07-13T02:11:32;10.20;;;9.00;;
56269;SDS011;42176;43.240;27.880;2023-07-13T02:13:33;12.00;;;8.50;;
56269;SDS011;42176;43.240;27.880;2023-07-13T02:15:33;9.33;;;8.27;;
56269;SDS011;42176;43.240;27.880;2023-07-13T02:17:34;9.77;;;8.33;;
56269;SDS011;42176;43.240;27.880;2023-07-13T02:19:35;13.63;;;8.60;;
56269;SDS011;42176;43.240;27.880;2023-07-13T02:21:36;10.93;;;8.37;;
56269;SDS011;42176;43.240;27.880;2023-07-13T02:23:36;9.53;;;8.23;;
56269;SDS011;42176;43.240;27.880;2023-07-13T02:25:37;13.10;;;8.97;;
56269;SDS011;42176;43.240;27.880;2023-07-13T02:27:37;14.75;;;8.68;;
56269;SDS011;42176;43.240;27.880;2023-07-13T02:29:38;14.63;;;8.50;;
56269;SDS011;42176;43.240;27.880;2023-07-13T02:31:38;12.17;;;8.67;;
56269;SDS011;42176;43.240;27.880;2023-07-13T02:33:39;14.77;;;9.40;;
56269;SDS011;42176;43.240;27.880;2023-07-13T02:35:39;10.27;;;8.57;;
56269;SDS011;42176;43.240;27.880;2023-07-13T02:37:40;10.55;;;8.38;;
56269;SDS011;42176;43.240;27.880;2023-07-13T02:39:41;20.63;;;8.82;;
56269;SDS011;42176;43.240;27.880;2023-07-13T02:41:41;12.70;;;8.50;;
56269;SDS011;42176;43.240;27.880;2023-07-13T02:43:41;10.33;;;8.27;;
56269;SDS011;42176;43.240;27.880;2023-07-13T02:45:45;9.80;;;8.40;;
56269;SDS011;42176;43.240;27.880;2023-07-13T02:47:46;9.93;;;8.50;;
56269;SDS011;42176;43.240;27.880;2023-07-13T02:49:47;12.70;;;8.37;;
56269;SDS011;42176;43.240;27.880;2023-07-13T02:51:48;11.70;;;9.15;;
56269;SDS011;42176;43.240;27.880;2023-07-13T02:53:49;9.50;;;8.52;;
56269;SDS011;42176;43.240;27.880;2023-07-13T02:55:49;10.27;;;8.37;;
56269;SDS011;42176;43.240;27.880;2023-07-13T02:59:51;10.93;;;8.30;;
56269;SDS011;42176;43.240;27.880;2023-07-13T03:01:51;9.52;;;8.18;;
56269;SDS011;42176;43.240;27.880;2023-07-13T03:03:52;9.50;;;8.47;;
56269;SDS011;42176;43.240;27.880;2023-07-13T03:05:58;9.15;;;8.20;;
56269;SDS011;42176;43.240;27.880;2023-07-13T03:08:00;11.50;;;8.68;;
56269;SDS011;42176;43.240;27.880;2023-07-13T03:10:00;16.63;;;8.77;;
56269;SDS011;42176;43.240;27.880;2023-07-13T03:12:01;12.20;;;8.37;;
56269;SDS011;42176;43.240;27.880;2023-07-13T03:14:02;12.00;;;8.95;;
56269;SDS011;42176;43.240;27.880;2023-07-13T03:16:02;11.57;;;8.63;;
56269;SDS011;42176;43.240;27.880;2023-07-13T03:18:03;23.00;;;9.05;;
56269;SDS011;42176;43.240;27.880;2023-07-13T03:20:03;9.67;;;7.83;;
56269;SDS011;42176;43.240;27.880;2023-07-13T03:22:04;11.00;;;8.18;;
56269;SDS011;42176;43.240;27.880;2023-07-13T03:24:05;15.02;;;8.35;;
56269;SDS011;42176;43.240;27.880;2023-07-13T03:26:13;10.98;;;8.95;;
56269;SDS011;42176;43.240;27.880;2023-07-13T03:28:16;12.70;;;8.82;;
56269;SDS011;42176;43.240;27.880;2023-07-13T03:30:16;13.23;;;8.68;;
56269;SDS011;42176;43.240;27.880;2023-07-13T03:32:17;13.17;;;8.93;;
56269;SDS011;42176;43.240;27.880;2023-07-13T03:34:17;13.33;;;9.27;;
56269;SDS011;42176;43.240;27.880;2023-07-13T03:36:19;10.57;;;8.87;;
56269;SDS011;42176;43.240;27.880;2023-07-13T03:38:22;34.00;;;9.77;;
56269;SDS011;42176;43.240;27.880;2023-07-13T03:40:23;11.85;;;8.63;;
56269;SDS011;42176;43.240;27.880;2023-07-13T03:42:23;12.05;;;8.30;;
56269;SDS011;42176;43.240;27.880;2023-07-13T03:44:24;13.33;;;8.37;;
56269;SDS011;42176;43.240;27.880;2023-07-13T03:46:24;10.67;;;8.03;;
56269;SDS011;42176;43.240;27.880;2023-07-13T03:48:25;10.63;;;8.50;;
56269;SDS011;42176;43.240;27.880;2023-07-13T03:50:25;10.03;;;8.00;;
56269;SDS011;42176;43.240;27.880;2023-07-13T03:52:25;11.60;;;8.27;;
56269;SDS011;42176;43.240;27.880;2023-07-13T03:54:26;15.75;;;9.52;;
56269;SDS011;42176;43.240;27.880;2023-07-13T03:56:26;12.23;;;7.88;;
56269;SDS011;42176;43.240;27.880;2023-07-13T03:58:28;9.43;;;8.40;;
56269;SDS011;42176;43.240;27.880;2023-07-13T04:00:33;8.60;;;7.43;;
56269;SDS011;42176;43.240;27.880;2023-07-13T04:02:34;10.68;;;8.15;;
56269;SDS011;42176;43.240;27.880;2023-07-13T04:04:35;15.52;;;8.40;;
56269;SDS011;42176;43.240;27.880;2023-07-13T04:06:36;18.05;;;8.48;;
56269;SDS011;42176;43.240;27.880;2023-07-13T04:08:37;21.38;;;9.55;;
56269;SDS011;42176;43.240;27.880;2023-07-13T04:10:38;15.23;;;8.95;;
56269;SDS011;42176;43.240;27.880;2023-07-13T04:14:39;18.77;;;9.17;;
56269;SDS011;42176;43.240;27.880;2023-07-13T04:18:39;29.30;;;12.80;;
56269;SDS011;42176;43.240;27.880;2023-07-13T04:20:41;13.02;;;8.50;;
56269;SDS011;42176;43.240;27.880;2023-07-13T04:22:41;16.73;;;9.07;;
56269;SDS011;42176;43.240;27.880;2023-07-13T04:26:42;21.07;;;9.80;;
56269;SDS011;42176;43.240;27.880;2023-07-13T04:30:43;24.13;;;9.77;;
56269;SDS011;42176;43.240;27.880;2023-07-13T04:34:44;11.77;;;8.00;;
56269;SDS011;42176;43.240;27.880;2023-07-13T04:36:44;14.48;;;6.38;;
56269;SDS011;42176;43.240;27.880;2023-07-13T04:38:44;9.88;;;6.75;;
56269;SDS011;42176;43.240;27.880;2023-07-13T04:40:45;10.40;;;5.60;;
56269;SDS011;42176;43.240;27.880;2023-07-13T04:42:46;9.18;;;5.55;;
56269;SDS011;42176;43.240;27.880;2023-07-13T04:44:48;10.48;;;6.15;;
56269;SDS011;42176;43.240;27.880;2023-07-13T04:46:49;9.55;;;6.13;;
56269;SDS011;42176;43.240;27.880;2023-07-13T04:48:49;12.25;;;6.63;;
56269;SDS011;42176;43.240;27.880;2023-07-13T04:50:56;9.65;;;6.03;;
56269;SDS011;42176;43.240;27.880;2023-07-13T04:52:58;13.15;;;6.63;;
56269;SDS011;42176;43.240;27.880;2023-07-13T04:54:59;10.60;;;6.18;;
56269;SDS011;42176;43.240;27.880;2023-07-13T04:57:00;13.73;;;6.35;;
56269;SDS011;42176;43.240;27.880;2023-07-13T04:59:01;14.32;;;6.72;;
56269;SDS011;42176;43.240;27.880;2023-07-13T05:01:02;11.75;;;6.45;;
56269;SDS011;42176;43.240;27.880;2023-07-13T05:03:05;16.63;;;7.45;;
56269;SDS011;42176;43.240;27.880;2023-07-13T05:05:06;8.30;;;6.35;;
56269;SDS011;42176;43.240;27.880;2023-07-13T05:07:07;13.25;;;7.30;;
56269;SDS011;42176;43.240;27.880;2023-07-13T05:09:07;11.75;;;5.95;;
56269;SDS011;42176;43.240;27.880;2023-07-13T05:11:08;10.68;;;6.15;;
56269;SDS011;42176;43.240;27.880;2023-07-13T05:13:08;12.73;;;6.20;;
56269;SDS011;42176;43.240;27.880;2023-07-13T05:15:09;12.70;;;6.25;;
56269;SDS011;42176;43.240;27.880;2023-07-13T05:17:10;16.02;;;6.72;;
56269;SDS011;42176;43.240;27.880;2023-07-13T05:19:12;13.50;;;6.28;;
56269;SDS011;42176;43.240;27.880;2023-07-13T05:21:12;11.80;;;6.97;;
56269;SDS011;42176;43.240;27.880;2023-07-13T05:23:13;8.95;;;6.20;;
56269;SDS011;42176;43.240;27.880;2023-07-13T05:25:14;9.20;;;6.13;;
56269;SDS011;42176;43.240;27.880;2023-07-13T05:27:14;13.57;;;6.43;;
56269;SDS011;42176;43.240;27.880;2023-07-13T05:29:15;10.02;;;6.18;;
56269;SDS011;42176;43.240;27.880;2023-07-13T05:31:16;6.72;;;6.03;;
56269;SDS011;42176;43.240;27.880;2023-07-13T05:33:16;14.30;;;6.95;;
56269;SDS011;42176;43.240;27.880;2023-07-13T05:35:17;9.43;;;7.00;;
56269;SDS011;42176;43.240;27.880;2023-07-13T05:37:17;10.98;;;6.63;;
56269;SDS011;42176;43.240;27.880;2023-07-13T05:39:18;8.57;;;6.20;;
56269;SDS011;42176;43.240;27.880;2023-07-13T05:41:19;10.50;;;6.75;;
56269;SDS011;42176;43.240;27.880;2023-07-13T05:43:19;14.50;;;6.95;;
56269;SDS011;42176;43.240;27.880;2023-07-13T05:45:19;9.68;;;5.60;;
56269;SDS011;42176;43.240;27.880;2023-07-13T05:47:20;10.77;;;6.53;;
56269;SDS011;42176;43.240;27.880;2023-07-13T05:49:20;8.63;;;6.47;;
56269;SDS011;42176;43.240;27.880;2023-07-13T05:51:21;9.85;;;6.70;;
56269;SDS011;42176;43.240;27.880;2023-07-13T05:53:21;12.07;;;6.93;;
56269;SDS011;42176;43.240;27.880;2023-07-13T05:55:22;8.90;;;5.72;;
56269;SDS011;42176;43.240;27.880;2023-07-13T05:57:22;10.88;;;6.00;;
56269;SDS011;42176;43.240;27.880;2023-07-13T05:59:23;7.78;;;6.45;;
56269;SDS011;42176;43.240;27.880;2023-07-13T06:01:23;10.95;;;6.80;;
56269;SDS011;42176;43.240;27.880;2023-07-13T06:03:23;8.82;;;6.80;;
56269;SDS011;42176;43.240;27.880;2023-07-13T06:05:24;10.35;;;6.60;;
56269;SDS011;42176;43.240;27.880;2023-07-13T06:07:24;10.45;;;6.05;;
56269;SDS011;42176;43.240;27.880;2023-07-13T06:09:25;8.20;;;6.22;;
56269;SDS011;42176;43.240;27.880;2023-07-13T06:11:26;17.17;;;7.00;;
56269;SDS011;42176;43.240;27.880;2023-07-13T06:13:27;14.52;;;6.53;;
56269;SDS011;42176;43.240;27.880;2023-07-13T06:15:28;14.80;;;7.07;;
56269;SDS011;42176;43.240;27.880;2023-07-13T06:17:28;14.73;;;7.22;;
56269;SDS011;42176;43.240;27.880;2023-07-13T06:19:29;9.30;;;6.57;;
56269;SDS011;42176;43.240;27.880;2023-07-13T06:21:29;10.02;;;7.00;;
56269;SDS011;42176;43.240;27.880;2023-07-13T06:23:30;8.13;;;6.35;;
56269;SDS011;42176;43.240;27.880;2023-07-13T06:25:30;9.93;;;6.78;;
56269;SDS011;42176;43.240;27.880;2023-07-13T06:27:30;9.25;;;6.50;;
56269;SDS011;42176;43.240;27.880;2023-07-13T06:29:31;10.25;;;6.45;;
56269;SDS011;42176;43.240;27.880;2023-07-13T06:31:31;9.02;;;6.35;;
56269;SDS011;42176;43.240;27.880;2023-07-13T06:33:32;9.82;;;6.53;;
56269;SDS011;42176;43.240;27.880;2023-07-13T06:35:33;7.82;;;7.05;;
56269;SDS011;42176;43.240;27.880;2023-07-13T06:37:33;14.38;;;7.43;;
56269;SDS011;42176;43.240;27.880;2023-07-13T06:39:34;11.57;;;6.15;;
56269;SDS011;42176;43.240;27.880;2023-07-13T06:41:34;8.88;;;6.25;;
56269;SDS011;42176;43.240;27.880;2023-07-13T06:43:35;8.30;;;6.90;;
56269;SDS011;42176;43.240;27.880;2023-07-13T06:45:43;12.20;;;5.78;;
56269;SDS011;42176;43.240;27.880;2023-07-13T06:47:50;7.68;;;5.97;;
56269;SDS011;42176;43.240;27.880;2023-07-13T06:49:50;14.07;;;7.85;;
56269;SDS011;42176;43.240;27.880;2023-07-13T06:51:50;9.45;;;6.32;;
56269;SDS011;42176;43.240;27.880;2023-07-13T06:53:51;7.45;;;6.50;;
56269;SDS011;42176;43.240;27.880;2023-07-13T06:55:52;11.60;;;6.80;;
56269;SDS011;42176;43.240;27.880;2023-07-13T06:57:52;11.43;;;7.07;;
56269;SDS011;42176;43.240;27.880;2023-07-13T06:59:53;9.75;;;6.28;;
56269;SDS011;42176;43.240;27.880;2023-07-13T07:01:53;10.93;;;6.70;;
56269;SDS011;42176;43.240;27.880;2023-07-13T07:03:54;11.63;;;7.10;;
56269;SDS011;42176;43.240;27.880;2023-07-13T07:05:59;9.02;;;6.20;;
56269;SDS011;42176;43.240;27.880;2023-07-13T07:08:00;10.70;;;7.03;;
56269;SDS011;42176;43.240;27.880;2023-07-13T07:10:01;10.25;;;7.70;;
56269;SDS011;42176;43.240;27.880;2023-07-13T07:12:03;13.73;;;7.43;;
56269;SDS011;42176;43.240;27.880;2023-07-13T07:14:03;13.13;;;6.85;;
56269;SDS011;42176;43.240;27.880;2023-07-13T07:16:04;9.70;;;6.97;;
56269;SDS011;42176;43.240;27.880;2023-07-13T07:18:05;10.90;;;7.47;;
56269;SDS011;42176;43.240;27.880;2023-07-13T07:20:05;8.45;;;7.45;;
56269;SDS011;42176;43.240;27.880;2023-07-13T07:22:07;12.35;;;7.20;;
56269;SDS011;42176;43.240;27.880;2023-07-13T07:24:07;11.80;;;7.43;;
56269;SDS011;42176;43.240;27.880;2023-07-13T07:26:08;12.50;;;7.15;;
56269;SDS011;42176;43.240;27.880;2023-07-13T07:28:10;11.05;;;7.15;;
56269;SDS011;42176;43.240;27.880;2023-07-13T07:30:13;7.65;;;6.68;;
56269;SDS011;42176;43.240;27.880;2023-07-13T07:32:13;9.88;;;7.65;;
56269;SDS011;42176;43.240;27.880;2023-07-13T07:34:15;12.35;;;7.70;;
56269;SDS011;42176;43.240;27.880;2023-07-13T07:36:16;15.63;;;7.80;;
56269;SDS011;42176;43.240;27.880;2023-07-13T07:38:17;12.35;;;7.63;;
56269;SDS011;42176;43.240;27.880;2023-07-13T07:40:18;12.55;;;8.07;;
56269;SDS011;42176;43.240;27.880;2023-07-13T07:42:19;10.70;;;7.97;;
56269;SDS011;42176;43.240;27.880;2023-07-13T07:44:19;12.65;;;7.25;;
56269;SDS011;42176;43.240;27.880;2023-07-13T07:46:19;10.52;;;7.45;;
56269;SDS011;42176;43.240;27.880;2023-07-13T07:48:20;12.27;;;7.35;;
56269;SDS011;42176;43.240;27.880;2023-07-13T07:50:20;11.80;;;7.88;;
56269;SDS011;42176;43.240;27.880;2023-07-13T07:52:21;9.75;;;7.15;;
56269;SDS011;42176;43.240;27.880;2023-07-13T07:54:21;11.55;;;7.93;;
56269;SDS011;42176;43.240;27.880;2023-07-13T07:56:22;11.02;;;8.10;;
56269;SDS011;42176;43.240;27.880;2023-07-13T07:58:22;9.77;;;7.90;;
56269;SDS011;42176;43.240;27.880;2023-07-13T08:00:23;13.95;;;8.85;;
56269;SDS011;42176;43.240;27.880;2023-07-13T08:02:24;12.43;;;8.18;;
56269;SDS011;42176;43.240;27.880;2023-07-13T08:04:25;10.65;;;7.90;;
56269;SDS011;42176;43.240;27.880;2023-07-13T08:06:25;11.38;;;7.90;;
56269;SDS011;42176;43.240;27.880;2023-07-13T08:08:26;10.20;;;7.38;;
56269;SDS011;42176;43.240;27.880;2023-07-13T08:10:26;15.57;;;8.93;;
56269;SDS011;42176;43.240;27.880;2023-07-13T08:12:27;12.25;;;7.47;;
56269;SDS011;42176;43.240;27.880;2023-07-13T08:14:27;10.75;;;7.88;;
56269;SDS011;42176;43.240;27.880;2023-07-13T08:16:28;10.05;;;8.48;;
56269;SDS011;42176;43.240;27.880;2023-07-13T08:18:28;10.30;;;7.60;;
56269;SDS011;42176;43.240;27.880;2023-07-13T08:20:28;14.75;;;8.70;;
56269;SDS011;42176;43.240;27.880;2023-07-13T08:22:29;13.52;;;7.63;;
56269;SDS011;42176;43.240;27.880;2023-07-13T08:24:29;8.95;;;6.90;;
56269;SDS011;42176;43.240;27.880;2023-07-13T08:26:30;10.93;;;6.82;;
56269;SDS011;42176;43.240;27.880;2023-07-13T08:28:30;9.05;;;7.55;;
56269;SDS011;42176;43.240;27.880;2023-07-13T08:30:32;9.85;;;7.05;;
56269;SDS011;42176;43.240;27.880;2023-07-13T08:32:32;10.43;;;6.97;;
56269;SDS011;42176;43.240;27.880;2023-07-13T08:34:33;11.07;;;6.88;;
56269;SDS011;42176;43.240;27.880;2023-07-13T08:36:33;12.75;;;7.00;;
56269;SDS011;42176;43.240;27.880;2023-07-13T08:38:34;10.70;;;7.95;;
56269;SDS011;42176;43.240;27.880;2023-07-13T08:40:34;11.52;;;7.15;;
56269;SDS011;42176;43.240;27.880;2023-07-13T08:42:56;8.93;;;7.10;;
56269;SDS011;42176;43.240;27.880;2023-07-13T08:45:12;8.95;;;6.80;;
56269;SDS011;42176;43.240;27.880;2023-07-13T08:47:21;8.68;;;7.07;;
56269;SDS011;42176;43.240;27.880;2023-07-13T08:49:23;11.38;;;7.60;;
56269;SDS011;42176;43.240;27.880;2023-07-13T08:53:36;13.13;;;6.73;;
56269;SDS011;42176;43.240;27.880;2023-07-13T08:55:41;11.85;;;6.93;;
56269;SDS011;42176;43.240;27.880;2023-07-13T08:57:43;10.90;;;6.47;;
56269;SDS011;42176;43.240;27.880;2023-07-13T08:59:48;6.90;;;6.25;;
56269;SDS011;42176;43.240;27.880;2023-07-13T09:04:19;11.73;;;6.63;;
56269;SDS011;42176;43.240;27.880;2023-07-13T09:06:23;9.40;;;7.50;;
56269;SDS011;42176;43.240;27.880;2023-07-13T09:08:47;9.35;;;7.10;;
56269;SDS011;42176;43.240;27.880;2023-07-13T09:13:30;16.85;;;7.60;;
56269;SDS011;42176;43.240;27.880;2023-07-13T09:15:45;10.48;;;7.95;;
56269;SDS011;42176;43.240;27.880;2023-07-13T09:17:51;10.38;;;7.75;;
56269;SDS011;42176;43.240;27.880;2023-07-13T09:20:03;12.27;;;7.93;;
56269;SDS011;42176;43.240;27.880;2023-07-13T09:22:11;11.90;;;7.10;;
56269;SDS011;42176;43.240;27.880;2023-07-13T09:24:32;12.60;;;8.15;;
56269;SDS011;42176;43.240;27.880;2023-07-13T09:28:45;10.07;;;7.97;;
56269;SDS011;42176;43.240;27.880;2023-07-13T09:32:53;9.55;;;8.10;;
56269;SDS011;42176;43.240;27.880;2023-07-13T09:34:54;8.73;;;7.00;;
56269;SDS011;42176;43.240;27.880;2023-07-13T09:36:55;9.88;;;7.00;;
56269;SDS011;42176;43.240;27.880;2023-07-13T09:39:01;9.73;;;7.68;;
56269;SDS011;42176;43.240;27.880;2023-07-13T09:43:31;12.90;;;6.63;;
56269;SDS011;42176;43.240;27.880;2023-07-13T09:45:33;13.73;;;8.15;;
56269;SDS011;42176;43.240;27.880;2023-07-13T09:47:38;15.57;;;9.05;;
56269;SDS011;42176;43.240;27.880;2023-07-13T09:49:40;10.05;;;8.52;;
56269;SDS011;42176;43.240;27.880;2023-07-13T09:51:41;13.35;;;8.80;;
56269;SDS011;42176;43.240;27.880;2023-07-13T09:53:43;12.65;;;8.82;;
56269;SDS011;42176;43.240;27.880;2023-07-13T09:55:47;11.45;;;8.20;;
56269;SDS011;42176;43.240;27.880;2023-07-13T09:57:48;11.00;;;7.82;;
56269;SDS011;42176;43.240;27.880;2023-07-13T09:59:51;10.00;;;8.30;;
56269;SDS011;42176;43.240;27.880;2023-07-13T10:01:52;11.82;;;7.97;;
56269;SDS011;42176;43.240;27.880;2023-07-13T10:03:53;10.85;;;7.43;;
56269;SDS011;42176;43.240;27.880;2023-07-13T10:05:54;13.57;;;8.40;;
56269;SDS011;42176;43.240;27.880;2023-07-13T10:10:22;14.93;;;7.65;;
56269;SDS011;42176;43.240;27.880;2023-07-13T10:12:23;11.65;;;8.05;;
56269;SDS011;42176;43.240;27.880;2023-07-13T10:14:24;11.68;;;8.93;;
56269;SDS011;42176;43.240;27.880;2023-07-13T10:16:28;9.75;;;8.75;;
56269;SDS011;42176;43.240;27.880;2023-07-13T10:20:50;13.05;;;8.43;;
56269;SDS011;42176;43.240;27.880;2023-07-13T10:25:00;8.68;;;6.63;;
56269;SDS011;42176;43.240;27.880;2023-07-13T10:29:15;10.73;;;8.10;;
56269;SDS011;42176;43.240;27.880;2023-07-13T10:31:16;10.82;;;8.02;;
56269;SDS011;42176;43.240;27.880;2023-07-13T10:33:17;8.98;;;7.88;;
56269;SDS011;42176;43.240;27.880;2023-07-13T10:35:18;12.55;;;9.23;;
56269;SDS011;42176;43.240;27.880;2023-07-13T10:37:23;11.43;;;9.10;;
56269;SDS011;42176;43.240;27.880;2023-07-13T10:39:27;14.10;;;8.80;;
56269;SDS011;42176;43.240;27.880;2023-07-13T10:41:30;9.05;;;7.82;;
56269;SDS011;42176;43.240;27.880;2023-07-13T10:43:37;12.25;;;7.53;;
56269;SDS011;42176;43.240;27.880;2023-07-13T10:45:42;11.15;;;8.02;;
56269;SDS011;42176;43.240;27.880;2023-07-13T10:47:49;7.57;;;6.80;;
56269;SDS011;42176;43.240;27.880;2023-07-13T10:49:54;11.55;;;8.27;;
56269;SDS011;42176;43.240;27.880;2023-07-13T10:51:59;12.82;;;8.65;;
56269;SDS011;42176;43.240;27.880;2023-07-13T10:54:42;9.38;;;7.63;;
56269;SDS011;42176;43.240;27.880;2023-07-13T10:56:29;11.52;;;8.18;;
56269;SDS011;42176;43.240;27.880;2023-07-13T10:58:34;12.02;;;7.07;;
56269;SDS011;42176;43.240;27.880;2023-07-13T11:00:34;10.25;;;7.32;;
56269;SDS011;42176;43.240;27.880;2023-07-13T11:02:58;10.85;;;7.85;;
56269;SDS011;42176;43.240;27.880;2023-07-13T11:07:29;10.55;;;7.18;;
56269;SDS011;42176;43.240;27.880;2023-07-13T11:09:36;11.38;;;8.10;;
56269;SDS011;42176;43.240;27.880;2023-07-13T11:11:40;17.55;;;7.82;;
56269;SDS011;42176;43.240;27.880;2023-07-13T11:15:47;11.55;;;7.53;;
56269;SDS011;42176;43.240;27.880;2023-07-13T11:17:51;10.95;;;7.85;;
56269;SDS011;42176;43.240;27.880;2023-07-13T11:22:13;8.63;;;7.72;;
56269;SDS011;42176;43.240;27.880;2023-07-13T11:24:17;9.13;;;6.95;;
56269;SDS011;42176;43.240;27.880;2023-07-13T11:28:41;15.35;;;8.65;;
56269;SDS011;42176;43.240;27.880;2023-07-13T11:30:44;9.00;;;7.55;;
56269;SDS011;42176;43.240;27.880;2023-07-13T11:32:51;10.52;;;7.63;;
56269;SDS011;42176;43.240;27.880;2023-07-13T11:35:08;12.95;;;8.77;;
56269;SDS011;42176;43.240;27.880;2023-07-13T11:37:16;10.97;;;8.50;;
56269;SDS011;42176;43.240;27.880;2023-07-13T11:39:19;11.73;;;7.95;;
56269;SDS011;42176;43.240;27.880;2023-07-13T11:41:37;10.75;;;7.47;;
56269;SDS011;42176;43.240;27.880;2023-07-13T11:43:49;10.90;;;9.30;;
56269;SDS011;42176;43.240;27.880;2023-07-13T11:45:51;9.63;;;8.13;;
56269;SDS011;42176;43.240;27.880;2023-07-13T11:47:52;11.23;;;9.02;;
56269;SDS011;42176;43.240;27.880;2023-07-13T11:49:53;9.00;;;8.10;;
56269;SDS011;42176;43.240;27.880;2023-07-13T11:51:58;14.98;;;8.40;;
56269;SDS011;42176;43.240;27.880;2023-07-13T11:54:03;10.00;;;8.10;;
56269;SDS011;42176;43.240;27.880;2023-07-13T11:56:17;10.65;;;9.27;;
56269;SDS011;42176;43.240;27.880;2023-07-13T11:58:19;11.48;;;8.30;;
56269;SDS011;42176;43.240;27.880;2023-07-13T12:00:25;14.77;;;10.75;;
56269;SDS011;42176;43.240;27.880;2023-07-13T12:02:33;8.82;;;7.78;;
56269;SDS011;42176;43.240;27.880;2023-07-13T12:04:37;10.52;;;8.50;;
56269;SDS011;42176;43.240;27.880;2023-07-13T12:06:38;13.13;;;8.13;;
56269;SDS011;42176;43.240;27.880;2023-07-13T12:08:41;10.10;;;8.15;;
56269;SDS011;42176;43.240;27.880;2023-07-13T12:10:42;8.95;;;6.70;;
56269;SDS011;42176;43.240;27.880;2023-07-13T12:12:51;15.45;;;9.10;;
56269;SDS011;42176;43.240;27.880;2023-07-13T12:14:52;8.75;;;6.97;;
56269;SDS011;42176;43.240;27.880;2023-07-13T12:16:55;9.18;;;7.53;;
56269;SDS011;42176;43.240;27.880;2023-07-13T12:18:56;10.57;;;8.73;;
56269;SDS011;42176;43.240;27.880;2023-07-13T12:20:58;13.35;;;8.43;;
56269;SDS011;42176;43.240;27.880;2023-07-13T12:22:59;8.73;;;7.63;;
56269;SDS011;42176;43.240;27.880;2023-07-13T12:25:02;10.82;;;8.57;;
56269;SDS011;42176;43.240;27.880;2023-07-13T12:27:05;9.77;;;7.40;;
56269;SDS011;42176;43.240;27.880;2023-07-13T12:29:06;13.68;;;8.15;;
56269;SDS011;42176;43.240;27.880;2023-07-13T12:31:17;11.73;;;8.70;;
56269;SDS011;42176;43.240;27.880;2023-07-13T12:33:24;14.43;;;8.25;;
56269;SDS011;42176;43.240;27.880;2023-07-13T12:35:28;10.68;;;7.63;;
56269;SDS011;42176;43.240;27.880;2023-07-13T12:37:33;9.57;;;6.82;;
56269;SDS011;42176;43.240;27.880;2023-07-13T12:39:39;9.45;;;7.38;;
56269;SDS011;42176;43.240;27.880;2023-07-13T12:41:46;14.68;;;9.48;;
56269;SDS011;42176;43.240;27.880;2023-07-13T12:43:48;13.13;;;7.93;;
56269;SDS011;42176;43.240;27.880;2023-07-13T12:50:14;10.07;;;8.65;;
56269;SDS011;42176;43.240;27.880;2023-07-13T12:52:18;11.40;;;8.00;;